createdAt,value
2018-03-29T00:00:52.174Z,3.18
2018-03-29T00:03:18.129Z,3.24
2018-03-29T00:05:44.074Z,3.22
2018-03-29T00:08:10.030Z,3.23
2018-03-29T00:10:35.981Z,3.22
2018-03-29T00:13:01.941Z,3.24
2018-03-29T00:15:27.898Z,3.25
2018-03-29T00:17:53.843Z,3.22
2018-03-29T00:20:34.758Z,3.24
2018-03-29T00:23:00.717Z,3.26
2018-03-29T00:25:26.665Z,3.25
2018-03-29T00:27:52.625Z,3.29
2018-03-29T00:30:18.593Z,3.29
2018-03-29T00:32:44.548Z,3.31
2018-03-29T00:35:10.492Z,3.32
2018-03-29T00:37:36.438Z,3.31
2018-03-29T00:40:02.409Z,3.30
2018-03-29T00:42:28.353Z,3.31
2018-03-29T00:44:54.330Z,3.33
2018-03-29T00:47:20.295Z,3.35
2018-03-29T00:49:46.269Z,3.35
2018-03-29T00:52:12.250Z,3.34
2018-03-29T00:54:38.243Z,3.38
2018-03-29T00:57:04.220Z,3.37
2018-03-29T00:59:30.217Z,3.38
2018-03-29T01:01:56.190Z,3.39
2018-03-29T01:04:22.142Z,3.39
2018-03-29T01:06:48.114Z,3.41
2018-03-29T01:09:14.082Z,3.39
2018-03-29T01:11:40.053Z,3.41
2018-03-29T01:14:06.032Z,3.41
2018-03-29T01:16:32.010Z,3.43
2018-03-29T01:18:57.982Z,3.45
2018-03-29T01:21:23.978Z,3.49
2018-03-29T01:23:49.924Z,3.53
2018-03-29T01:26:15.909Z,3.56
2018-03-29T01:28:41.859Z,3.57
2018-03-29T01:31:07.810Z,3.61
2018-03-29T01:33:33.760Z,3.61
2018-03-29T01:35:59.697Z,3.68
2018-03-29T01:38:25.662Z,3.67
2018-03-29T01:40:51.628Z,3.70
2018-03-29T01:43:17.610Z,3.70
2018-03-29T01:45:43.600Z,3.70
2018-03-29T01:48:09.563Z,3.73
2018-03-29T01:50:35.530Z,3.73
2018-03-29T01:53:01.493Z,3.73
2018-03-29T01:55:27.449Z,3.76
2018-03-29T01:57:53.441Z,3.77
2018-03-29T02:00:19.410Z,3.79
2018-03-29T02:02:45.389Z,3.75
2018-03-29T02:05:11.357Z,3.78
2018-03-29T02:07:37.309Z,3.80
2018-03-29T02:10:03.269Z,3.83
2018-03-29T02:12:29.225Z,3.88
2018-03-29T02:14:55.167Z,3.89
2018-03-29T02:17:21.115Z,3.90
2018-03-29T02:19:47.075Z,3.93
2018-03-29T02:22:13.041Z,3.98
2018-03-29T02:24:38.992Z,4.00
2018-03-29T02:27:04.989Z,4.06
2018-03-29T02:29:30.925Z,4.08
2018-03-29T02:31:56.900Z,4.08
2018-03-29T02:34:22.846Z,4.12
2018-03-29T02:36:48.795Z,4.17
2018-03-29T02:39:14.749Z,4.19
2018-03-29T02:41:40.703Z,4.21
2018-03-29T02:44:06.660Z,4.32
2018-03-29T02:46:32.634Z,4.33
2018-03-29T02:48:58.586Z,4.37
2018-03-29T02:51:24.548Z,4.29
2018-03-29T02:53:50.518Z,4.30
2018-03-29T02:56:16.525Z,4.31
2018-03-29T02:58:42.465Z,4.35
2018-03-29T03:01:08.421Z,4.39
2018-03-29T03:03:34.376Z,4.39
2018-03-29T03:06:00.333Z,4.42
2018-03-29T03:08:26.285Z,4.48
2018-03-29T03:10:52.406Z,4.52
2018-03-29T03:13:18.353Z,4.55
2018-03-29T03:15:44.319Z,4.65
2018-03-29T03:18:10.293Z,4.71
2018-03-29T03:20:36.259Z,4.75
2018-03-29T03:23:02.233Z,4.78
2018-03-29T03:25:43.194Z,4.94
2018-03-29T03:28:09.134Z,4.95
2018-03-29T03:30:35.102Z,5.04
2018-03-29T03:33:01.061Z,5.10
2018-03-29T03:35:27.001Z,5.16
2018-03-29T03:37:52.961Z,5.22
2018-03-29T03:40:18.911Z,5.25
2018-03-29T03:42:44.881Z,5.33
2018-03-29T03:45:10.847Z,5.32
2018-03-29T03:47:36.796Z,5.41
2018-03-29T03:50:02.780Z,5.40
2018-03-29T03:52:28.750Z,5.40
2018-03-29T03:54:54.725Z,5.42
2018-03-29T03:57:20.698Z,5.40
2018-03-29T03:59:46.677Z,5.38
2018-03-29T04:02:12.647Z,5.42
2018-03-29T04:04:38.611Z,5.38
2018-03-29T04:07:04.558Z,5.37
2018-03-29T04:09:30.500Z,5.37
2018-03-29T04:11:56.466Z,5.32
2018-03-29T04:14:22.420Z,5.28
2018-03-29T04:16:48.369Z,5.24
2018-03-29T04:19:14.338Z,5.17
2018-03-29T04:21:40.314Z,5.20
2018-03-29T04:24:06.295Z,5.14
2018-03-29T04:26:32.249Z,5.10
2018-03-29T04:28:58.197Z,5.04
2018-03-29T04:31:24.196Z,5.06
2018-03-29T04:33:50.166Z,5.03
2018-03-29T04:36:16.138Z,4.97
2018-03-29T04:38:42.108Z,4.99
2018-03-29T04:41:08.084Z,4.98
2018-03-29T04:43:34.029Z,4.93
2018-03-29T04:46:00.007Z,4.95
2018-03-29T04:48:25.955Z,4.88
2018-03-29T04:50:51.896Z,4.94
2018-03-29T04:53:17.874Z,4.91
2018-03-29T04:55:43.837Z,4.94
2018-03-29T04:58:09.788Z,4.94
2018-03-29T05:00:35.745Z,4.89
2018-03-29T05:03:01.744Z,4.92
2018-03-29T05:05:27.702Z,4.95
2018-03-29T05:07:53.653Z,4.92
2018-03-29T05:10:19.626Z,4.92
2018-03-29T05:12:45.588Z,4.95
2018-03-29T05:15:11.546Z,4.93
2018-03-29T05:17:37.520Z,4.95
2018-03-29T05:20:03.481Z,4.90
2018-03-29T05:22:29.459Z,4.88
2018-03-29T05:24:55.404Z,4.89
2018-03-29T05:27:25.204Z,4.86
2018-03-29T05:29:51.174Z,4.88
2018-03-29T05:32:17.163Z,4.82
2018-03-29T05:34:43.120Z,4.81
2018-03-29T05:37:09.065Z,4.78
2018-03-29T05:39:35.036Z,4.83
2018-03-29T05:42:01.030Z,4.84
2018-03-29T05:44:26.998Z,4.82
2018-03-29T05:46:52.992Z,4.86
2018-03-29T05:49:18.930Z,4.88
2018-03-29T05:51:44.889Z,4.85
2018-03-29T05:54:10.839Z,4.89
2018-03-29T05:56:36.794Z,4.84
2018-03-29T05:59:02.754Z,4.86
2018-03-29T06:01:28.718Z,4.86
2018-03-29T06:03:54.685Z,4.79
2018-03-29T06:06:20.652Z,4.82
2018-03-29T06:08:46.644Z,4.85
2018-03-29T06:11:12.630Z,4.87
2018-03-29T06:13:39.657Z,4.86
2018-03-29T06:16:05.637Z,4.84
2018-03-29T06:18:31.609Z,4.89
2018-03-29T06:20:57.584Z,4.93
2018-03-29T06:23:23.647Z,4.95
2018-03-29T06:25:49.590Z,4.90
2018-03-29T06:28:15.541Z,4.92
2018-03-29T06:30:41.494Z,4.94
2018-03-29T06:33:07.437Z,4.95
2018-03-29T06:35:33.454Z,4.91
2018-03-29T06:37:59.425Z,4.93
2018-03-29T06:40:25.393Z,4.98
2018-03-29T06:42:51.353Z,4.99
2018-03-29T06:45:17.316Z,5.03
2018-03-29T06:47:43.265Z,5.03
2018-03-29T06:50:09.230Z,5.02
2018-03-29T06:52:35.178Z,5.09
2018-03-29T06:55:01.141Z,5.12
2018-03-29T06:57:27.093Z,5.07
2018-03-29T06:59:53.057Z,5.13
2018-03-29T07:02:19.057Z,5.18
2018-03-29T07:04:45.034Z,5.18
2018-03-29T07:07:10.998Z,5.22
2018-03-29T07:09:36.970Z,5.29
2018-03-29T07:12:02.958Z,5.18
2018-03-29T07:14:28.926Z,5.35
2018-03-29T07:16:54.930Z,5.43
2018-03-29T07:19:20.898Z,5.44
2018-03-29T07:21:46.847Z,5.55
2018-03-29T07:24:12.814Z,5.49
2018-03-29T07:26:38.769Z,5.40
2018-03-29T07:29:04.753Z,5.54
2018-03-29T07:31:30.737Z,5.64
2018-03-29T07:33:56.695Z,5.57
2018-03-29T07:36:22.744Z,5.73
2018-03-29T07:38:48.705Z,5.63
2018-03-29T07:41:14.667Z,5.69
2018-03-29T07:43:40.624Z,5.67
2018-03-29T07:46:06.613Z,5.72
2018-03-29T07:48:47.538Z,5.76
2018-03-29T07:51:13.505Z,5.69
2018-03-29T07:53:39.531Z,5.73
2018-03-29T07:56:05.535Z,5.83
2018-03-29T07:58:31.481Z,5.95
2018-03-29T08:00:57.461Z,5.83
2018-03-29T08:03:23.423Z,5.96
2018-03-29T08:05:49.385Z,5.80
2018-03-29T08:08:15.378Z,5.84
2018-03-29T08:10:41.385Z,5.96
2018-03-29T08:13:07.345Z,5.91
2018-03-29T08:15:33.298Z,5.87
2018-03-29T08:17:59.256Z,6.00
2018-03-29T08:20:25.344Z,6.03
2018-03-29T08:22:51.313Z,6.01
2018-03-29T08:25:17.266Z,5.95
2018-03-29T08:27:43.239Z,6.01
2018-03-29T08:30:09.204Z,6.06
2018-03-29T08:32:35.175Z,6.18
2018-03-29T08:35:01.127Z,6.14
2018-03-29T08:37:27.101Z,6.23
2018-03-29T08:39:53.061Z,6.24
2018-03-29T08:42:19.019Z,6.34
2018-03-29T08:44:45.000Z,6.36
2018-03-29T08:47:10.949Z,6.39
2018-03-29T08:49:36.897Z,6.50
2018-03-29T08:52:02.868Z,6.33
2018-03-29T08:54:28.833Z,6.30
2018-03-29T08:56:54.827Z,6.29
2018-03-29T08:59:20.784Z,6.18
2018-03-29T09:01:46.757Z,6.34
2018-03-29T09:04:12.786Z,6.34
2018-03-29T09:06:38.749Z,6.35
2018-03-29T09:09:04.726Z,6.64
2018-03-29T09:11:30.673Z,6.93
2018-03-29T09:13:56.616Z,7.16
2018-03-29T09:16:22.573Z,7.46
2018-03-29T09:18:48.530Z,7.49
2018-03-29T09:21:14.512Z,7.20
2018-03-29T09:23:40.473Z,7.33
2018-03-29T09:26:06.433Z,7.14
2018-03-29T09:28:32.417Z,7.03
2018-03-29T09:30:58.413Z,6.92
2018-03-29T09:33:24.373Z,6.63
2018-03-29T09:35:50.352Z,6.53
2018-03-29T09:38:16.311Z,6.56
2018-03-29T09:40:42.270Z,6.83
2018-03-29T09:43:08.248Z,7.28
2018-03-29T09:45:34.233Z,8.46
2018-03-29T09:48:00.205Z,8.94
2018-03-29T09:50:26.179Z,8.95
2018-03-29T09:52:52.144Z,9.94
2018-03-29T09:55:18.104Z,9.99
2018-03-29T09:57:44.106Z,11.27
2018-03-29T10:00:10.079Z,12.47
2018-03-29T10:02:37.084Z,12.33
2018-03-29T10:05:03.089Z,14.38
2018-03-29T10:07:33.930Z,14.00
2018-03-29T10:09:59.900Z,14.08
2018-03-29T10:12:25.864Z,12.87
2018-03-29T10:14:51.846Z,11.22
2018-03-29T10:17:17.905Z,10.92
2018-03-29T10:19:43.877Z,9.71
2018-03-29T10:22:09.898Z,9.86
2018-03-29T10:24:36.206Z,10.12
2018-03-29T10:27:02.185Z,9.50
2018-03-29T10:29:28.146Z,9.45
2018-03-29T10:31:54.134Z,8.99
2018-03-29T10:34:20.097Z,9.11
2018-03-29T10:36:46.067Z,8.69
2018-03-29T10:39:12.033Z,8.49
2018-03-29T10:41:37.981Z,8.64
2018-03-29T10:44:03.971Z,8.70
2018-03-29T10:49:26.117Z,9.30
2018-03-29T10:51:53.646Z,9.50
2018-03-29T10:54:21.238Z,9.44
2018-03-29T10:56:48.754Z,9.27
2018-03-29T10:59:16.274Z,9.20
2018-03-29T11:01:43.919Z,8.90
2018-03-29T11:04:11.505Z,9.13
2018-03-29T11:06:39.038Z,8.66
2018-03-29T11:09:06.593Z,8.56
2018-03-29T11:11:34.114Z,8.49
2018-03-29T11:14:01.634Z,8.06
2018-03-29T11:16:29.516Z,8.35
2018-03-29T11:18:57.048Z,8.34
2018-03-29T11:21:24.610Z,8.35
2018-03-29T11:23:52.121Z,7.86
2018-03-29T11:26:19.640Z,7.95
2018-03-29T11:28:47.282Z,7.98
2018-03-29T11:31:14.797Z,8.04
2018-03-29T11:33:42.345Z,8.21
2018-03-29T11:36:09.899Z,8.46
2018-03-29T11:38:37.433Z,8.68
2018-03-29T11:41:04.953Z,8.55
2018-03-29T11:43:32.472Z,8.66
2018-03-29T11:45:59.998Z,8.38
2018-03-29T11:48:27.521Z,8.54
2018-03-29T11:50:55.034Z,8.55
2018-03-29T11:53:22.555Z,8.55
2018-03-29T11:55:50.239Z,8.32
2018-03-29T11:58:17.815Z,8.34
2018-03-29T12:00:45.384Z,8.23
2018-03-29T12:03:12.922Z,8.22
2018-03-29T12:05:40.441Z,8.20
2018-03-29T12:08:08.050Z,8.23
2018-03-29T12:10:35.576Z,7.98
2018-03-29T12:13:03.111Z,8.01
2018-03-29T12:15:30.641Z,8.09
2018-03-29T12:17:58.221Z,8.27
2018-03-29T12:20:25.748Z,8.23
2018-03-29T12:22:53.270Z,8.27
2018-03-29T12:25:20.990Z,8.21
2018-03-29T12:27:48.553Z,8.16
2018-03-29T12:30:16.086Z,8.21
2018-03-29T12:32:43.762Z,8.07
2018-03-29T12:35:11.322Z,8.00
2018-03-29T12:37:38.825Z,7.90
2018-03-29T12:40:06.422Z,7.91
2018-03-29T12:42:33.983Z,7.87
2018-03-29T12:45:01.520Z,7.94
2018-03-29T12:47:29.070Z,8.08
2018-03-29T12:49:56.680Z,8.34
2018-03-29T12:52:24.308Z,8.46
2018-03-29T12:55:03.558Z,8.73
2018-03-29T12:57:43.110Z,8.80
2018-03-29T13:00:10.664Z,8.70
2018-03-29T13:02:38.216Z,8.76
2018-03-29T13:05:05.852Z,8.77
2018-03-29T13:07:33.416Z,8.74
2018-03-29T13:10:00.986Z,8.92
2018-03-29T13:12:28.513Z,8.76
2018-03-29T13:14:56.025Z,8.60
2018-03-29T13:17:23.546Z,8.48
2018-03-29T13:19:51.139Z,8.46
2018-03-29T13:22:18.672Z,8.49
2018-03-29T13:24:46.228Z,8.30
2018-03-29T13:27:13.822Z,8.45
2018-03-29T13:29:41.383Z,8.37
2018-03-29T13:32:08.914Z,8.31
2018-03-29T13:34:36.454Z,8.50
2018-03-29T13:37:04.241Z,8.77
2018-03-29T13:39:31.826Z,8.64
2018-03-29T13:41:59.396Z,8.59
2018-03-29T13:44:26.974Z,8.68
2018-03-29T13:46:54.508Z,8.75
2018-03-29T13:49:22.033Z,8.84
2018-03-29T13:51:49.562Z,8.85
2018-03-29T13:54:17.177Z,8.84
2018-03-29T13:56:44.690Z,8.80
2018-03-29T13:59:12.238Z,8.92
2018-03-29T14:01:39.932Z,8.93
2018-03-29T14:04:07.629Z,8.82
2018-03-29T14:06:35.162Z,8.65
2018-03-29T14:09:02.685Z,8.66
2018-03-29T14:11:30.207Z,8.83
2018-03-29T14:13:57.760Z,8.83
2018-03-29T14:16:25.292Z,8.99
2018-03-29T14:18:52.810Z,8.83
2018-03-29T14:21:20.394Z,8.84
2018-03-29T14:23:48.073Z,8.92
2018-03-29T14:26:15.653Z,8.87
2018-03-29T14:28:43.208Z,8.96
2018-03-29T14:31:10.724Z,8.94
2018-03-29T14:33:38.349Z,9.04
2018-03-29T14:36:05.874Z,9.03
2018-03-29T14:38:33.468Z,8.98
2018-03-29T14:41:01.049Z,8.96
2018-03-29T14:43:28.777Z,9.03
2018-03-29T14:45:56.456Z,9.12
2018-03-29T14:48:24.023Z,9.14
2018-03-29T14:50:51.558Z,9.05
2018-03-29T14:53:19.081Z,8.92
2018-03-29T14:55:46.730Z,8.90
2018-03-29T14:58:14.239Z,8.67
2018-03-29T15:00:41.810Z,8.75
2018-03-29T15:03:09.375Z,8.82
2018-03-29T15:05:37.038Z,8.69
2018-03-29T15:08:04.604Z,8.66
2018-03-29T15:10:32.142Z,8.66
2018-03-29T15:12:59.653Z,8.61
2018-03-29T15:15:27.173Z,8.64
2018-03-29T15:17:54.723Z,8.64
2018-03-29T15:20:22.277Z,8.71
2018-03-29T15:22:49.922Z,8.74
2018-03-29T15:25:17.893Z,8.64
2018-03-29T15:27:45.470Z,8.56
2018-03-29T15:30:13.020Z,8.53
2018-03-29T15:32:40.540Z,8.71
2018-03-29T15:35:08.061Z,8.60
2018-03-29T15:37:35.624Z,8.63
2018-03-29T15:40:03.149Z,8.63
2018-03-29T15:42:30.669Z,8.62
2018-03-29T15:44:58.261Z,8.52
2018-03-29T15:47:25.866Z,8.46
2018-03-29T15:49:53.410Z,8.43
2018-03-29T15:52:21.089Z,8.57
2018-03-29T15:54:48.613Z,8.47
2018-03-29T15:57:16.180Z,8.36
2018-03-29T15:59:43.696Z,8.41
2018-03-29T16:02:11.210Z,8.45
2018-03-29T16:04:38.741Z,8.53
2018-03-29T16:07:06.356Z,8.39
2018-03-29T16:09:34.054Z,8.45
2018-03-29T16:12:01.622Z,8.38
2018-03-29T16:14:29.156Z,8.40
2018-03-29T16:16:56.687Z,8.41
2018-03-29T16:19:24.233Z,8.45
2018-03-29T16:21:51.766Z,8.36
2018-03-29T16:24:19.289Z,8.38
2018-03-29T16:26:46.927Z,8.39
2018-03-29T16:29:14.441Z,8.31
2018-03-29T16:31:41.970Z,8.30
2018-03-29T16:34:09.489Z,8.34
2018-03-29T16:36:37.022Z,8.25
2018-03-29T16:39:04.549Z,8.22
2018-03-29T16:41:32.185Z,8.26
2018-03-29T16:43:59.745Z,8.33
2018-03-29T16:46:27.269Z,8.24
2018-03-29T16:48:54.799Z,8.21
2018-03-29T16:51:22.326Z,8.21
2018-03-29T16:53:49.881Z,8.18
2018-03-29T16:56:17.413Z,8.13
2018-03-29T16:58:44.998Z,8.12
2018-03-29T17:01:12.521Z,8.12
2018-03-29T17:03:40.055Z,8.14
2018-03-29T17:06:07.691Z,8.13
2018-03-29T17:08:35.250Z,8.07
2018-03-29T17:11:02.777Z,8.03
2018-03-29T17:13:30.369Z,8.02
2018-03-29T17:15:57.893Z,7.97
2018-03-29T17:18:25.421Z,7.94
2018-03-29T17:20:53.046Z,7.89
2018-03-29T17:23:20.605Z,7.91
2018-03-29T17:25:48.129Z,7.90
2018-03-29T17:28:15.646Z,7.90
2018-03-29T17:30:43.553Z,7.81
2018-03-29T17:33:11.050Z,7.79
2018-03-29T17:35:38.624Z,7.69
2018-03-29T17:38:06.167Z,7.67
2018-03-29T17:40:33.700Z,7.59
2018-03-29T17:43:01.233Z,7.52
2018-03-29T17:45:28.765Z,7.38
2018-03-29T17:47:56.460Z,7.34
2018-03-29T17:50:23.953Z,7.38
2018-03-29T17:52:51.486Z,7.28
2018-03-29T17:55:19.013Z,7.05
2018-03-29T17:57:46.856Z,7.04
2018-03-29T18:00:14.412Z,7.13
2018-03-29T18:02:42.080Z,6.76
2018-03-29T18:05:09.945Z,6.67
2018-03-29T18:07:37.499Z,6.67
2018-03-29T18:10:06.014Z,6.61
2018-03-29T18:12:33.553Z,6.57
2018-03-29T18:15:01.079Z,6.72
2018-03-29T18:17:28.593Z,6.82
2018-03-29T18:19:56.133Z,6.79
2018-03-29T18:22:23.654Z,6.78
2018-03-29T18:24:51.183Z,6.77
2018-03-29T18:27:18.956Z,6.75
2018-03-29T18:29:46.769Z,6.76
2018-03-29T18:32:14.333Z,6.70
2018-03-29T18:34:41.888Z,6.73
2018-03-29T18:37:09.417Z,6.71
2018-03-29T18:39:36.938Z,6.65
2018-03-29T18:42:04.458Z,6.62
2018-03-29T18:44:31.971Z,6.59
2018-03-29T18:46:59.534Z,6.60
2018-03-29T18:49:27.190Z,6.58
2018-03-29T18:51:54.705Z,6.55
2018-03-29T18:54:22.252Z,6.53
2018-03-29T18:56:49.769Z,6.54
2018-03-29T18:59:17.304Z,6.54
2018-03-29T19:01:45.057Z,6.47
2018-03-29T19:04:12.595Z,6.49
2018-03-29T19:06:40.127Z,6.49
2018-03-29T19:09:07.874Z,6.46
2018-03-29T19:11:35.395Z,6.51
2018-03-29T19:14:02.997Z,6.46
2018-03-29T19:16:30.536Z,6.47
2018-03-29T19:18:58.081Z,6.41
2018-03-29T19:21:25.610Z,6.34
2018-03-29T19:23:53.164Z,6.43
2018-03-29T19:26:20.795Z,6.35
2018-03-29T19:28:48.337Z,6.44
2018-03-29T19:31:15.862Z,6.35
2018-03-29T19:33:43.401Z,6.31
2018-03-29T19:36:10.930Z,6.26
2018-03-29T19:38:38.457Z,6.20
2018-03-29T19:41:06.322Z,6.16
2018-03-29T19:43:33.839Z,6.21
2018-03-29T19:46:01.377Z,6.14
2018-03-29T19:48:28.933Z,6.00
2018-03-29T19:50:56.465Z,6.09
2018-03-29T19:53:23.991Z,5.89
2018-03-29T19:55:51.713Z,5.96
2018-03-29T19:58:19.271Z,5.89
2018-03-29T20:00:46.797Z,5.78
2018-03-29T20:03:14.346Z,5.71
2018-03-29T20:05:41.916Z,5.71
2018-03-29T20:08:09.743Z,5.69
2018-03-29T20:10:37.271Z,5.76
2018-03-29T20:13:05.792Z,5.68
2018-03-29T20:15:34.738Z,5.64
2018-03-29T20:18:02.413Z,5.69
2018-03-29T20:20:29.907Z,5.65
2018-03-29T20:22:57.434Z,5.64
2018-03-29T20:25:25.658Z,5.65
2018-03-29T20:27:53.238Z,5.65
2018-03-29T20:30:20.813Z,5.58
2018-03-29T20:32:48.341Z,5.56
2018-03-29T20:35:16.210Z,5.53
2018-03-29T20:37:43.787Z,5.50
2018-03-29T20:40:11.422Z,5.55
2018-03-29T20:42:39.198Z,5.56
2018-03-29T20:45:06.729Z,5.52
2018-03-29T20:47:34.259Z,5.59
2018-03-29T20:50:01.789Z,5.52
2018-03-29T20:52:29.318Z,5.55
2018-03-29T20:54:56.864Z,5.53
2018-03-29T20:57:25.258Z,5.53
2018-03-29T20:59:52.779Z,5.40
2018-03-29T21:02:21.846Z,5.42
2018-03-29T21:04:49.845Z,5.48
2018-03-29T21:07:17.373Z,5.41
2018-03-29T21:09:45.172Z,5.48
2018-03-29T21:12:13.309Z,5.43
2018-03-29T21:14:40.833Z,5.48
2018-03-29T21:17:08.955Z,5.49
2018-03-29T21:19:36.523Z,5.40
2018-03-29T21:22:04.019Z,5.41
2018-03-29T21:24:33.058Z,5.44
2018-03-29T21:27:00.580Z,5.47
2018-03-29T21:29:28.106Z,5.46
2018-03-29T21:31:55.639Z,5.43
2018-03-29T21:34:23.157Z,5.38
2018-03-29T21:36:50.694Z,5.36
2018-03-29T21:39:18.235Z,5.32
2018-03-29T21:41:46.490Z,5.25
2018-03-29T21:44:14.515Z,5.17
2018-03-29T21:46:42.056Z,5.19
2018-03-29T21:49:09.592Z,5.16
2018-03-29T21:51:37.169Z,4.99
2018-03-29T21:54:04.694Z,4.91
2018-03-29T21:56:32.565Z,4.99
2018-03-29T21:59:00.577Z,5.01
2018-03-29T22:01:29.017Z,5.00
2018-03-29T22:03:56.572Z,4.97
2018-03-29T22:06:24.117Z,4.82
2018-03-29T22:08:51.641Z,4.82
2018-03-29T22:11:19.774Z,4.80
2018-03-29T22:13:49.115Z,4.71
2018-03-29T22:16:16.653Z,4.76
2018-03-29T22:18:44.194Z,4.72
2018-03-29T22:21:11.744Z,4.61
2018-03-29T22:23:39.274Z,4.57
2018-03-29T22:26:06.802Z,4.56
2018-03-29T22:28:34.328Z,4.47
2018-03-29T22:31:01.855Z,4.47
2018-03-29T22:33:29.956Z,4.45
2018-03-29T22:35:57.515Z,4.35
2018-03-29T22:38:25.052Z,4.36
2018-03-29T22:40:52.579Z,4.31
2018-03-29T22:43:20.103Z,4.17
2018-03-29T22:45:47.647Z,4.07
2018-03-29T22:48:15.173Z,4.01
2018-03-29T22:50:42.966Z,4.14
2018-03-29T22:53:10.491Z,4.07
2018-03-29T22:55:38.017Z,3.97
2018-03-29T22:58:05.528Z,4.02
2018-03-29T23:00:35.040Z,3.93
2018-03-29T23:03:02.561Z,3.90
2018-03-29T23:05:30.079Z,3.96
2018-03-29T23:07:57.745Z,3.94
2018-03-29T23:10:25.269Z,3.86
2018-03-29T23:12:54.238Z,3.88
2018-03-29T23:15:21.772Z,3.84
2018-03-29T23:17:49.302Z,3.79
2018-03-29T23:20:16.837Z,3.83
2018-03-29T23:22:44.392Z,3.75
2018-03-29T23:25:11.926Z,3.70
2018-03-29T23:27:39.465Z,3.61
2018-03-29T23:30:06.995Z,3.70
2018-03-29T23:32:34.515Z,3.70
2018-03-29T23:35:03.820Z,3.65
2018-03-29T23:37:31.363Z,3.57
2018-03-29T23:39:58.880Z,3.69
2018-03-29T23:42:26.404Z,3.72
2018-03-29T23:44:53.932Z,3.71
2018-03-29T23:47:21.458Z,3.72
2018-03-29T23:49:48.980Z,3.79
2018-03-29T23:52:16.532Z,3.79
2018-03-29T23:54:44.084Z,3.81
2018-03-29T23:57:11.623Z,3.79
2018-03-29T23:59:39.153Z,3.84
